Inicio METAR Ruta Wind Satelite

Informe Meteorológico

Fecha: 2020/07/02 00:49:52 Local
2020.07.02 05:49 UTC


Estado: VIGENTE
Operación:VFR
Bogota / Eldorado, Colombia (SKBO) 04-43N 074-09W 2548M
2020.07.02 0500 UTC
Wind: Variable at 2 MPH (2 KT):0
Visibility: greater than 7 mile(s):0
Sky conditions: overcast
Weather: light drizzle
Temperature: 53 F (12 C)
Dew Point: 50 F (10 C)
Relative Humidity: 87%
Pressure (altimeter): 30.35 in. Hg (1027 hPa)
ob: SKBO 020500Z VRB02KT 9999 -DZ SCT012 OVC070 12/10 A3035 RERA NOSIG
cycle: 5

SKBO 020400Z 13006KT 8000 -RA SCT015 OVC070 12/10 A3037 NOSIG
SKBO 020300Z 08003KT 8000 -RA BKN015 BKN070 13/12 A3035 NOSIG
SKBO 020200Z VRB02KT 9999 -DZ BKN015 BKN070 13/12 A3033 NOSIG
SKBO 020100Z VRB02KT 9999 -DZ SCT015 SCT070 12/11 A3030 NOSIG
SKBO 020000Z VRB02KT 8000 -DZ SCT015 SCT070 13/12 A3028 RETSRA NOSIG

2020/07/02 06:40
TAF SKBO 020430Z 0206/0306 VRB02KT 8000 RA SCT015 BKN070
BECMG 0210/0212 12012KT 9999 NSW SCT020
TEMPO 0219/0222 5000 TSRA SCT015CB BKN070
BECMG 0301/0303 VRB02KT TX21/0218Z TN09/0210Z